THY2848 LTFM-LTCB
Flight info
| Callsign | THY2848 |
|---|---|
| Flight time | 1h 10m |
| Altitude | 35000 |
| Route | EKAWE1E/36 EKAWE UT641 ABSAX UN743 GAKSU UT310 SIN UM860 CRM M11 TERME TERME1F |
| Aircraft | A321/M-SDE3FGHIRWY/LB1 |
Departure
| Time | 2026-04-15 14:59 |
|---|---|
| Airport | İstanbul Airport (LTFM) |
Arrival
| Time | 2026-04-15 16:09 |
|---|---|
| Airport | Ordu–Giresun Airport (LTCB) |
| Time | Latitude | Longitude | Altitude | Speed | Heading |
|---|---|---|---|---|---|
| 2026-04-15 14:30 | 41.26064 | 28.74919 | 334 ft | 0 kts | 251° |
| 2026-04-15 14:50 | 41.26068 | 28.74935 | 334 ft | 4 kts | 251° |
| 2026-04-15 14:50 | 41.26077 | 28.74968 | 334 ft | 4 kts | 252° |
| 2026-04-15 14:50 | 41.26082 | 28.75003 | 329 ft | 4 kts | 273° |
| 2026-04-15 14:50 | 41.26076 | 28.75035 | 332 ft | 4 kts | 309° |
| 2026-04-15 14:51 | 41.26056 | 28.75054 | 333 ft | 2 kts | 341° |
| 2026-04-15 14:51 | 41.26036 | 28.75064 | 332 ft | 2 kts | 341° |
| 2026-04-15 14:51 | 41.26034 | 28.75064 | 334 ft | 0 kts | 341° |
| 2026-04-15 14:54 | 41.26038 | 28.75063 | 330 ft | 3 kts | 341° |
| 2026-04-15 14:55 | 41.26077 | 28.75045 | 331 ft | 9 kts | 341° |
| 2026-04-15 14:55 | 41.26141 | 28.75016 | 331 ft | 10 kts | 341° |
| 2026-04-15 14:55 | 41.26212 | 28.74999 | 331 ft | 10 kts | 19° |
| 2026-04-15 14:55 | 41.26244 | 28.75080 | 331 ft | 10 kts | 86° |
| 2026-04-15 14:56 | 41.26244 | 28.75179 | 334 ft | 11 kts | 89° |
| 2026-04-15 14:56 | 41.26246 | 28.75287 | 331 ft | 12 kts | 89° |
| 2026-04-15 14:56 | 41.26247 | 28.75390 | 334 ft | 10 kts | 89° |
| 2026-04-15 14:56 | 41.26248 | 28.75479 | 334 ft | 7 kts | 89° |
| 2026-04-15 14:57 | 41.26249 | 28.75518 | 334 ft | 0 kts | 89° |
| 2026-04-15 14:57 | 41.26249 | 28.75529 | 334 ft | 4 kts | 89° |
| 2026-04-15 14:57 | 41.26250 | 28.75580 | 332 ft | 6 kts | 89° |
| 2026-04-15 14:58 | 41.26251 | 28.75641 | 334 ft | 7 kts | 88° |
| 2026-04-15 14:58 | 41.26285 | 28.75666 | 330 ft | 6 kts | 360° |
| 2026-04-15 14:58 | 41.26351 | 28.75666 | 332 ft | 18 kts | 359° |
| 2026-04-15 14:58 | 41.26719 | 28.75658 | 332 ft | 88 kts | 359° |
| 2026-04-15 14:59 | 41.27548 | 28.75643 | 331 ft | 148 kts | 359° |
| 2026-04-15 14:59 | 41.28708 | 28.75638 | 557 ft | 175 kts | 1° |
| 2026-04-15 14:59 | 41.29925 | 28.75694 | 1247 ft | 175 kts | 17° |
| 2026-04-15 14:59 | 41.31028 | 28.76403 | 1739 ft | 183 kts | 34° |
| 2026-04-15 15:00 | 41.32143 | 28.77371 | 2071 ft | 199 kts | 35° |
| 2026-04-15 15:00 | 41.33338 | 28.78422 | 2400 ft | 214 kts | 34° |
| 2026-04-15 15:00 | 41.34652 | 28.79558 | 2632 ft | 238 kts | 33° |
| 2026-04-15 15:00 | 41.36105 | 28.80757 | 3085 ft | 252 kts | 32° |
| 2026-04-15 15:01 | 41.37646 | 28.81951 | 3742 ft | 259 kts | 26° |
| 2026-04-15 15:01 | 41.39414 | 28.82435 | 4393 ft | 265 kts | 358° |
| 2026-04-15 15:01 | 41.41266 | 28.82236 | 5104 ft | 268 kts | 355° |
| 2026-04-15 15:01 | 41.43135 | 28.81997 | 5800 ft | 272 kts | 354° |
| 2026-04-15 15:02 | 41.45028 | 28.81751 | 6516 ft | 274 kts | 354° |
| 2026-04-15 15:02 | 41.46935 | 28.81506 | 7235 ft | 277 kts | 354° |
| 2026-04-15 15:02 | 41.48857 | 28.81259 | 7928 ft | 279 kts | 354° |
| 2026-04-15 15:02 | 41.50803 | 28.81011 | 8591 ft | 283 kts | 353° |
| 2026-04-15 15:03 | 41.52775 | 28.80765 | 9230 ft | 287 kts | 353° |
| 2026-04-15 15:03 | 41.54773 | 28.80519 | 9869 ft | 289 kts | 353° |
| 2026-04-15 15:03 | 41.56788 | 28.80272 | 10471 ft | 296 kts | 353° |
| 2026-04-15 15:03 | 41.58929 | 28.80261 | 10602 ft | 320 kts | 4° |
| 2026-04-15 15:04 | 41.61182 | 28.80868 | 10735 ft | 342 kts | 16° |
| 2026-04-15 15:04 | 41.63413 | 28.82190 | 11012 ft | 358 kts | 30° |
| 2026-04-15 15:04 | 41.65438 | 28.84193 | 11548 ft | 365 kts | 39° |
| 2026-04-15 15:04 | 41.67382 | 28.86397 | 12137 ft | 368 kts | 38° |
| 2026-04-15 15:05 | 41.69345 | 28.88615 | 12736 ft | 371 kts | 38° |
| 2026-04-15 15:05 | 41.71324 | 28.90858 | 13329 ft | 375 kts | 40° |
| 2026-04-15 15:05 | 41.73108 | 28.93424 | 13896 ft | 380 kts | 51° |
| 2026-04-15 15:05 | 41.74492 | 28.96399 | 14455 ft | 385 kts | 63° |
| 2026-04-15 15:06 | 41.76753 | 29.02962 | 15568 ft | 391 kts | 64° |
| 2026-04-15 15:06 | 41.77900 | 29.06285 | 16112 ft | 395 kts | 64° |
| 2026-04-15 15:06 | 41.79061 | 29.09634 | 16654 ft | 398 kts | 63° |
| 2026-04-15 15:07 | 41.80230 | 29.13005 | 17188 ft | 401 kts | 63° |
| 2026-04-15 15:07 | 41.81409 | 29.16411 | 17690 ft | 404 kts | 63° |
| 2026-04-15 15:07 | 41.82592 | 29.19844 | 18186 ft | 407 kts | 63° |
| 2026-04-15 15:07 | 41.83784 | 29.23315 | 18654 ft | 411 kts | 64° |
| 2026-04-15 15:08 | 41.84981 | 29.26820 | 19093 ft | 416 kts | 64° |
| 2026-04-15 15:08 | 41.86188 | 29.30361 | 19575 ft | 419 kts | 64° |
| 2026-04-15 15:08 | 41.87405 | 29.33923 | 20052 ft | 422 kts | 64° |
| 2026-04-15 15:08 | 41.88634 | 29.37517 | 20531 ft | 425 kts | 64° |
| 2026-04-15 15:09 | 41.89881 | 29.41120 | 20981 ft | 427 kts | 61° |
| 2026-04-15 15:09 | 41.91424 | 29.44523 | 21404 ft | 427 kts | 51° |
| 2026-04-15 15:09 | 41.93329 | 29.47579 | 21825 ft | 428 kts | 46° |
| 2026-04-15 15:09 | 41.95310 | 29.50581 | 22234 ft | 430 kts | 46° |
| 2026-04-15 15:10 | 41.97294 | 29.53607 | 22641 ft | 433 kts | 46° |
| 2026-04-15 15:10 | 41.99288 | 29.56660 | 23036 ft | 435 kts | 46° |
| 2026-04-15 15:10 | 42.01286 | 29.59729 | 23405 ft | 438 kts | 46° |
| 2026-04-15 15:10 | 42.03109 | 29.63029 | 23775 ft | 443 kts | 57° |
| 2026-04-15 15:11 | 42.04473 | 29.66768 | 24140 ft | 448 kts | 67° |
| 2026-04-15 15:11 | 42.05323 | 29.70764 | 24470 ft | 453 kts | 78° |
| 2026-04-15 15:11 | 42.05643 | 29.75001 | 24777 ft | 459 kts | 89° |
| 2026-04-15 15:11 | 42.05438 | 29.79302 | 25074 ft | 463 kts | 94° |
| 2026-04-15 15:12 | 42.05133 | 29.83627 | 25351 ft | 466 kts | 94° |
| 2026-04-15 15:12 | 42.04825 | 29.87981 | 25637 ft | 470 kts | 94° |
| 2026-04-15 15:12 | 42.04514 | 29.92376 | 25930 ft | 473 kts | 94° |
| 2026-04-15 15:12 | 42.04205 | 29.96796 | 26212 ft | 477 kts | 94° |
| 2026-04-15 15:13 | 42.03893 | 30.01250 | 26496 ft | 480 kts | 94° |
| 2026-04-15 15:13 | 42.03574 | 30.05729 | 26769 ft | 483 kts | 94° |
| 2026-04-15 15:13 | 42.03253 | 30.10227 | 27030 ft | 485 kts | 94° |
| 2026-04-15 15:13 | 42.02929 | 30.14766 | 27289 ft | 489 kts | 94° |
| 2026-04-15 15:14 | 42.02602 | 30.19328 | 27541 ft | 492 kts | 94° |
| 2026-04-15 15:14 | 42.02269 | 30.23917 | 27778 ft | 495 kts | 94° |
| 2026-04-15 15:14 | 42.01931 | 30.28534 | 28017 ft | 498 kts | 94° |
| 2026-04-15 15:14 | 42.01588 | 30.33173 | 28245 ft | 500 kts | 94° |
| 2026-04-15 15:15 | 42.01241 | 30.37847 | 28487 ft | 503 kts | 94° |
| 2026-04-15 15:15 | 42.00890 | 30.42539 | 28736 ft | 506 kts | 95° |
| 2026-04-15 15:15 | 42.00532 | 30.47255 | 28978 ft | 509 kts | 95° |
| 2026-04-15 15:15 | 42.00169 | 30.51999 | 29235 ft | 511 kts | 94° |
| 2026-04-15 15:16 | 41.99833 | 30.56762 | 29488 ft | 513 kts | 91° |
| 2026-04-15 15:16 | 41.99813 | 30.61543 | 29810 ft | 511 kts | 87° |
| 2026-04-15 15:16 | 41.99856 | 30.66322 | 30146 ft | 511 kts | 88° |
| 2026-04-15 15:16 | 41.99895 | 30.71095 | 30465 ft | 511 kts | 88° |
| 2026-04-15 15:17 | 41.99931 | 30.75875 | 30798 ft | 511 kts | 88° |
| 2026-04-15 15:17 | 41.99960 | 30.80641 | 31118 ft | 510 kts | 88° |
| 2026-04-15 15:17 | 41.99983 | 30.85353 | 31432 ft | 510 kts | 88° |
| 2026-04-15 15:17 | 42.00001 | 30.90183 | 31755 ft | 510 kts | 88° |
| 2026-04-15 15:18 | 42.00018 | 30.94873 | 32073 ft | 509 kts | 88° |
| 2026-04-15 15:18 | 42.00098 | 30.99695 | 32349 ft | 508 kts | 83° |
| 2026-04-15 15:18 | 42.00576 | 31.04324 | 32634 ft | 505 kts | 75° |
| 2026-04-15 15:18 | 42.01469 | 31.08865 | 32916 ft | 502 kts | 70° |
| 2026-04-15 15:19 | 42.02445 | 31.13373 | 33203 ft | 502 kts | 70° |
| 2026-04-15 15:19 | 42.03409 | 31.17881 | 33478 ft | 502 kts | 70° |
| 2026-04-15 15:19 | 42.04366 | 31.22394 | 33751 ft | 502 kts | 71° |
| 2026-04-15 15:19 | 42.05320 | 31.26907 | 34007 ft | 502 kts | 70° |
| 2026-04-15 15:20 | 42.06273 | 31.31430 | 34282 ft | 501 kts | 70° |
| 2026-04-15 15:20 | 42.07222 | 31.35931 | 34555 ft | 500 kts | 70° |
| 2026-04-15 15:20 | 42.08172 | 31.40438 | 34800 ft | 500 kts | 70° |
| 2026-04-15 15:20 | 42.09119 | 31.44938 | 35060 ft | 499 kts | 70° |
| 2026-04-15 15:21 | 42.10064 | 31.49444 | 35181 ft | 500 kts | 70° |
| 2026-04-15 15:21 | 42.11005 | 31.53941 | 35205 ft | 499 kts | 70° |
| 2026-04-15 15:21 | 42.12879 | 31.62932 | 35201 ft | 498 kts | 70° |
| 2026-04-15 15:22 | 42.14746 | 31.71917 | 35193 ft | 498 kts | 70° |
| 2026-04-15 15:22 | 42.16596 | 31.80852 | 35195 ft | 499 kts | 70° |
| 2026-04-15 15:23 | 42.18458 | 31.89860 | 35201 ft | 499 kts | 71° |
| 2026-04-15 15:23 | 42.20304 | 31.98879 | 35205 ft | 499 kts | 71° |
| 2026-04-15 15:24 | 42.22144 | 32.07914 | 35208 ft | 500 kts | 71° |
| 2026-04-15 15:24 | 42.23984 | 32.16967 | 35217 ft | 500 kts | 71° |
| 2026-04-15 15:25 | 42.25866 | 32.25990 | 35221 ft | 499 kts | 69° |
| 2026-04-15 15:25 | 42.27938 | 32.34929 | 35221 ft | 498 kts | 68° |
| 2026-04-15 15:26 | 42.30054 | 32.43830 | 35227 ft | 498 kts | 68° |
| 2026-04-15 15:26 | 42.32084 | 32.52778 | 35230 ft | 499 kts | 73° |
| 2026-04-15 15:27 | 42.32776 | 32.62137 | 35232 ft | 505 kts | 91° |
| 2026-04-15 15:27 | 42.31865 | 32.71479 | 35231 ft | 505 kts | 97° |
| 2026-04-15 15:28 | 42.30811 | 32.80869 | 35228 ft | 505 kts | 97° |
| 2026-04-15 15:28 | 42.29751 | 32.90258 | 35231 ft | 505 kts | 98° |
| 2026-04-15 15:29 | 42.28671 | 32.99629 | 35231 ft | 505 kts | 98° |
| 2026-04-15 15:29 | 42.27582 | 33.08996 | 35232 ft | 505 kts | 98° |
| 2026-04-15 15:30 | 42.26493 | 33.18358 | 35229 ft | 504 kts | 98° |
| 2026-04-15 15:30 | 42.25398 | 33.27704 | 35230 ft | 504 kts | 98° |
| 2026-04-15 15:31 | 42.24291 | 33.37056 | 35233 ft | 504 kts | 98° |
| 2026-04-15 15:31 | 42.23173 | 33.46388 | 35235 ft | 504 kts | 98° |
| 2026-04-15 15:32 | 42.22041 | 33.55724 | 35234 ft | 504 kts | 98° |
| 2026-04-15 15:32 | 42.20914 | 33.65063 | 35233 ft | 505 kts | 98° |
| 2026-04-15 15:33 | 42.19790 | 33.74352 | 35234 ft | 505 kts | 98° |
| 2026-04-15 15:33 | 42.18646 | 33.83703 | 35241 ft | 505 kts | 98° |
| 2026-04-15 15:34 | 42.17484 | 33.93046 | 35260 ft | 506 kts | 98° |
| 2026-04-15 15:34 | 42.16314 | 34.02401 | 35265 ft | 506 kts | 98° |
| 2026-04-15 15:35 | 42.15144 | 34.11755 | 35263 ft | 506 kts | 98° |
| 2026-04-15 15:35 | 42.13974 | 34.21104 | 35276 ft | 506 kts | 98° |
| 2026-04-15 15:36 | 42.12784 | 34.30450 | 35280 ft | 506 kts | 98° |
| 2026-04-15 15:36 | 42.11584 | 34.39788 | 35284 ft | 506 kts | 98° |
| 2026-04-15 15:37 | 42.10373 | 34.49112 | 35286 ft | 506 kts | 99° |
| 2026-04-15 15:37 | 42.09090 | 34.58421 | 35284 ft | 505 kts | 99° |
| 2026-04-15 15:38 | 42.07995 | 34.66140 | 35291 ft | 505 kts | 99° |
| 2026-04-15 15:38 | 42.06680 | 34.75429 | 35290 ft | 505 kts | 99° |
| 2026-04-15 15:39 | 42.05168 | 34.86212 | 35295 ft | 504 kts | 99° |
| 2026-04-15 15:39 | 42.04108 | 34.93985 | 35297 ft | 504 kts | 98° |
| 2026-04-15 15:40 | 42.02803 | 35.03251 | 35300 ft | 505 kts | 104° |
| 2026-04-15 15:40 | 42.00100 | 35.11926 | 35291 ft | 504 kts | 123° |
| 2026-04-15 15:41 | 41.96195 | 35.19737 | 35281 ft | 504 kts | 126° |
| 2026-04-15 15:41 | 41.92255 | 35.27552 | 35257 ft | 506 kts | 126° |
| 2026-04-15 15:42 | 41.88326 | 35.35334 | 35266 ft | 508 kts | 126° |
| 2026-04-15 15:42 | 41.84322 | 35.43217 | 35262 ft | 508 kts | 126° |
| 2026-04-15 15:43 | 41.80359 | 35.50999 | 35273 ft | 509 kts | 126° |
| 2026-04-15 15:43 | 41.76338 | 35.58889 | 35271 ft | 509 kts | 126° |
| 2026-04-15 15:44 | 41.72359 | 35.66665 | 35251 ft | 510 kts | 126° |
| 2026-04-15 15:44 | 41.70349 | 35.70584 | 34591 ft | 514 kts | 126° |
| 2026-04-15 15:44 | 41.68305 | 35.74568 | 33573 ft | 524 kts | 126° |
| 2026-04-15 15:45 | 41.66234 | 35.78610 | 32608 ft | 530 kts | 126° |
| 2026-04-15 15:45 | 41.64143 | 35.82690 | 31711 ft | 534 kts | 126° |
| 2026-04-15 15:45 | 41.62041 | 35.86782 | 31021 ft | 532 kts | 126° |
| 2026-04-15 15:45 | 41.59946 | 35.90857 | 30287 ft | 532 kts | 125° |
| 2026-04-15 15:46 | 41.57847 | 35.94931 | 29627 ft | 531 kts | 125° |
| 2026-04-15 15:46 | 41.55759 | 35.98970 | 29045 ft | 526 kts | 125° |
| 2026-04-15 15:46 | 41.53687 | 36.02965 | 28514 ft | 520 kts | 125° |
| 2026-04-15 15:46 | 41.51633 | 36.06913 | 28016 ft | 515 kts | 125° |
| 2026-04-15 15:47 | 41.49601 | 36.10818 | 27498 ft | 510 kts | 125° |
| 2026-04-15 15:47 | 41.47590 | 36.14684 | 26943 ft | 504 kts | 125° |
| 2026-04-15 15:47 | 41.45605 | 36.18501 | 26401 ft | 498 kts | 124° |
| 2026-04-15 15:47 | 41.43640 | 36.22275 | 25871 ft | 493 kts | 124° |
| 2026-04-15 15:48 | 41.41722 | 36.25955 | 25347 ft | 487 kts | 124° |
| 2026-04-15 15:48 | 41.39795 | 36.29645 | 24804 ft | 483 kts | 124° |
| 2026-04-15 15:48 | 41.37891 | 36.33289 | 24263 ft | 477 kts | 124° |
| 2026-04-15 15:48 | 41.36003 | 36.36900 | 23734 ft | 472 kts | 124° |
| 2026-04-15 15:49 | 41.34138 | 36.40465 | 23168 ft | 467 kts | 124° |
| 2026-04-15 15:49 | 41.32286 | 36.43997 | 22614 ft | 463 kts | 124° |
| 2026-04-15 15:49 | 41.30449 | 36.47492 | 22061 ft | 459 kts | 124° |
| 2026-04-15 15:49 | 41.28645 | 36.50969 | 21510 ft | 454 kts | 121° |
| 2026-04-15 15:50 | 41.27224 | 36.54677 | 20989 ft | 448 kts | 110° |
| 2026-04-15 15:50 | 41.26349 | 36.58619 | 20470 ft | 441 kts | 98° |
| 2026-04-15 15:50 | 41.25983 | 36.62636 | 19950 ft | 436 kts | 92° |
| 2026-04-15 15:50 | 41.25703 | 36.66631 | 19457 ft | 433 kts | 93° |
| 2026-04-15 15:51 | 41.25413 | 36.70603 | 18979 ft | 429 kts | 93° |
| 2026-04-15 15:51 | 41.25119 | 36.74534 | 18492 ft | 426 kts | 93° |
| 2026-04-15 15:51 | 41.24826 | 36.78432 | 17918 ft | 421 kts | 93° |
| 2026-04-15 15:51 | 41.24537 | 36.82279 | 17128 ft | 416 kts | 93° |
| 2026-04-15 15:52 | 41.24251 | 36.86085 | 16344 ft | 411 kts | 93° |
| 2026-04-15 15:52 | 41.23969 | 36.89818 | 15783 ft | 401 kts | 94° |
| 2026-04-15 15:52 | 41.23693 | 36.93486 | 15293 ft | 397 kts | 94° |
| 2026-04-15 15:52 | 41.23418 | 36.97116 | 14814 ft | 393 kts | 94° |
| 2026-04-15 15:53 | 41.23142 | 37.00706 | 14334 ft | 389 kts | 94° |
| 2026-04-15 15:53 | 41.22865 | 37.04267 | 13862 ft | 385 kts | 94° |
| 2026-04-15 15:53 | 41.22590 | 37.07790 | 13386 ft | 381 kts | 94° |
| 2026-04-15 15:53 | 41.22319 | 37.11271 | 12918 ft | 377 kts | 94° |
| 2026-04-15 15:54 | 41.22052 | 37.14677 | 12456 ft | 374 kts | 94° |
| 2026-04-15 15:54 | 41.21782 | 37.18117 | 11756 ft | 377 kts | 94° |
| 2026-04-15 15:54 | 41.21415 | 37.21545 | 11248 ft | 374 kts | 103° |
| 2026-04-15 15:54 | 41.20580 | 37.24788 | 10789 ft | 370 kts | 115° |
| 2026-04-15 15:55 | 41.19454 | 37.27824 | 10437 ft | 361 kts | 116° |
| 2026-04-15 15:55 | 41.18369 | 37.30756 | 10297 ft | 347 kts | 116° |
| 2026-04-15 15:55 | 41.17327 | 37.33583 | 10179 ft | 334 kts | 116° |
| 2026-04-15 15:55 | 41.16327 | 37.36298 | 10068 ft | 322 kts | 116° |
| 2026-04-15 15:56 | 41.15359 | 37.38919 | 9921 ft | 311 kts | 116° |
| 2026-04-15 15:56 | 41.14417 | 37.41463 | 9671 ft | 305 kts | 116° |
| 2026-04-15 15:56 | 41.13485 | 37.43974 | 9317 ft | 303 kts | 116° |
| 2026-04-15 15:56 | 41.12558 | 37.46469 | 8986 ft | 300 kts | 116° |
| 2026-04-15 15:57 | 41.11642 | 37.48932 | 8654 ft | 295 kts | 116° |
| 2026-04-15 15:57 | 41.10737 | 37.51357 | 8125 ft | 292 kts | 116° |
| 2026-04-15 15:57 | 41.09840 | 37.53757 | 7783 ft | 289 kts | 116° |
| 2026-04-15 15:57 | 41.08946 | 37.56146 | 7387 ft | 288 kts | 116° |
| 2026-04-15 15:58 | 41.08062 | 37.58511 | 7072 ft | 285 kts | 116° |
| 2026-04-15 15:58 | 41.07179 | 37.60871 | 6716 ft | 283 kts | 116° |
| 2026-04-15 15:58 | 41.06302 | 37.63211 | 6276 ft | 286 kts | 116° |
| 2026-04-15 15:58 | 41.05420 | 37.65567 | 5897 ft | 285 kts | 116° |
| 2026-04-15 15:59 | 41.04541 | 37.67911 | 5551 ft | 283 kts | 116° |
| 2026-04-15 15:59 | 41.03663 | 37.70242 | 5200 ft | 282 kts | 116° |
| 2026-04-15 15:59 | 41.02792 | 37.72557 | 4860 ft | 280 kts | 116° |
| 2026-04-15 15:59 | 41.02012 | 37.74904 | 4511 ft | 277 kts | 107° |
| 2026-04-15 16:00 | 41.01557 | 37.77333 | 4239 ft | 265 kts | 101° |
| 2026-04-15 16:00 | 41.01221 | 37.79679 | 3984 ft | 255 kts | 100° |
| 2026-04-15 16:00 | 41.00882 | 37.81931 | 3738 ft | 243 kts | 101° |
| 2026-04-15 16:00 | 41.00551 | 37.84051 | 3521 ft | 228 kts | 101° |
| 2026-04-15 16:01 | 41.00235 | 37.86060 | 3289 ft | 219 kts | 101° |
| 2026-04-15 16:01 | 40.99936 | 37.87968 | 3100 ft | 202 kts | 101° |
| 2026-04-15 16:01 | 40.99662 | 37.89716 | 2883 ft | 186 kts | 101° |
| 2026-04-15 16:01 | 40.99404 | 37.91364 | 2711 ft | 187 kts | 101° |
| 2026-04-15 16:02 | 40.99169 | 37.93081 | 2586 ft | 190 kts | 92° |
| 2026-04-15 16:02 | 40.99326 | 37.94818 | 2608 ft | 190 kts | 79° |
| 2026-04-15 16:02 | 40.99619 | 37.96531 | 2610 ft | 191 kts | 75° |
| 2026-04-15 16:02 | 40.99976 | 37.98222 | 2612 ft | 192 kts | 73° |
| 2026-04-15 16:03 | 41.00348 | 37.99917 | 2611 ft | 192 kts | 74° |
| 2026-04-15 16:03 | 41.00722 | 38.01609 | 2612 ft | 192 kts | 73° |
| 2026-04-15 16:03 | 41.01097 | 38.03308 | 2611 ft | 192 kts | 73° |
| 2026-04-15 16:03 | 41.01473 | 38.05000 | 2612 ft | 192 kts | 74° |
| 2026-04-15 16:04 | 41.01841 | 38.06701 | 2613 ft | 193 kts | 77° |
| 2026-04-15 16:04 | 41.01810 | 38.08453 | 2617 ft | 192 kts | 101° |
| 2026-04-15 16:04 | 41.01514 | 38.10161 | 2609 ft | 187 kts | 103° |
| 2026-04-15 16:04 | 41.01198 | 38.11818 | 2609 ft | 184 kts | 104° |
| 2026-04-15 16:05 | 41.00882 | 38.13450 | 2612 ft | 180 kts | 104° |
| 2026-04-15 16:05 | 41.00585 | 38.14975 | 2623 ft | 164 kts | 104° |
| 2026-04-15 16:05 | 41.00312 | 38.16375 | 2616 ft | 153 kts | 104° |
| 2026-04-15 16:05 | 41.00050 | 38.17719 | 2610 ft | 149 kts | 104° |
| 2026-04-15 16:06 | 40.99791 | 38.19041 | 2610 ft | 148 kts | 105° |
| 2026-04-15 16:06 | 40.99188 | 38.20103 | 2590 ft | 149 kts | 152° |
| 2026-04-15 16:06 | 40.98155 | 38.20259 | 2459 ft | 153 kts | 186° |
| 2026-04-15 16:06 | 40.97117 | 38.19978 | 2192 ft | 152 kts | 191° |
| 2026-04-15 16:07 | 40.96103 | 38.19605 | 1828 ft | 152 kts | 204° |
| 2026-04-15 16:07 | 40.95322 | 38.18672 | 1523 ft | 154 kts | 239° |
| 2026-04-15 16:07 | 40.95421 | 38.15952 | 838 ft | 153 kts | 292° |
| 2026-04-15 16:08 | 40.95728 | 38.14607 | 600 ft | 153 kts | 280° |
| 2026-04-15 16:08 | 40.95942 | 38.13237 | 435 ft | 152 kts | 283° |
| 2026-04-15 16:08 | 40.96165 | 38.11877 | 299 ft | 151 kts | 283° |
| 2026-04-15 16:08 | 40.96380 | 38.10521 | 92 ft | 150 kts | 282° |
| 2026-04-15 16:09 | 40.96587 | 38.09230 | 23 ft | 129 kts | 282° |
| 2026-04-15 16:09 | 40.96740 | 38.08266 | 25 ft | 82 kts | 282° |
| 2026-04-15 16:09 | 40.96804 | 38.07864 | 24 ft | 15 kts | 279° |
| 2026-04-15 16:09 | 40.96740 | 38.07803 | 22 ft | 14 kts | 188° |
| 2026-04-15 16:10 | 40.96635 | 38.07781 | 18 ft | 13 kts | 192° |
| 2026-04-15 16:10 | 40.96567 | 38.07799 | 18 ft | 8 kts | 119° |
| 2026-04-15 16:10 | 40.96556 | 38.07873 | 17 ft | 8 kts | 100° |
| 2026-04-15 16:10 | 40.96544 | 38.07956 | 17 ft | 10 kts | 101° |
| 2026-04-15 16:11 | 40.96531 | 38.08042 | 18 ft | 10 kts | 102° |
| 2026-04-15 16:11 | 40.96515 | 38.08112 | 19 ft | 5 kts | 139° |
| 2026-04-15 16:11 | 40.96479 | 38.08117 | 17 ft | 2 kts | 191° |
| 2026-04-15 16:11 | 40.96460 | 38.08111 | 17 ft | 3 kts | 192° |
| 2026-04-15 16:12 | 40.96453 | 38.08109 | 17 ft | 0 kts | 192° |